Humidity-temperature Sensor

Selected Measurement Type: Relative Humidity

 
Relative Humidity [%]     6 entries per hour
Showing data from 4/18/2015 (00:00:00 Z) to 4/17/2015 (00:01:00 Z)
Previous Next [ Day | 3-Days | 7-Days ]
First Last
Prev [ Day | 3-Days | 7-Days ] Next
First Last

Start Time:     :
End Time:     :     
Time (in GMT) :00 :50 :40 :30 :20 :10
Previous Next [ Day | 3-Days | 7-Days ]
First Last
Prev [ Day | 3-Days | 7-Days ] Next
First Last


123 => good data
MM => data is determined as missing
-- => data not received/configured
Back to Top Back to Top
4/18/2015 00:00 to 23:10 72.21 72.46 70.37 70.41 68.94 68.34
4/17/2015 23:00 to 22:10 69.33 67.09 69.25 68.05 68.73 68.63
4/17/2015 22:00 to 21:10 70.28 70.43 69.93 68.61 70.26 68.48
4/17/2015 21:00 to 20:10 69.41 69.62 69.60 69.50 71.51 71.86
4/17/2015 20:00 to 19:10 71.61 69.97 70.72 71.01 70.93 71.57
4/17/2015 19:00 to 18:10 71.13 70.80 70.60 70.78 71.28 69.14
4/17/2015 18:00 to 17:10 69.14 69.52 70.95 71.13 71.49 68.75
4/17/2015 17:00 to 16:10 69.60 69.02 70.53 70.74 71.76 71.51
4/17/2015 16:00 to 15:10 71.40 70.43 71.34 70.55 69.29 68.73
4/17/2015 15:00 to 14:10 68.21 69.58 69.54 68.61 69.17 69.23
4/17/2015 14:00 to 13:10 68.44 70.26 70.80 71.03 70.33 69.99
4/17/2015 13:00 to 12:10 70.49 72.83 74.10 73.73 73.27 73.25
4/17/2015 12:00 to 11:10 72.07 73.21 74.10 74.89 73.81 73.97
4/17/2015 11:00 to 10:10 73.15 74.29 74.51 75.16 75.63 74.76
4/17/2015 10:00 to 9:10 74.33 73.31 74.02 73.08 74.29 74.08
4/17/2015 09:00 to 8:10 75.24 74.58 74.72 74.93 74.70 73.54
4/17/2015 08:00 to 7:10 74.14 74.97 75.59 75.74 75.28 75.49
4/17/2015 07:00 to 6:10 76.52 75.72 75.92 76.55 75.16 76.07
4/17/2015 06:00 to 5:10 75.09 75.78 75.07 75.76 76.05 77.15
4/17/2015 05:00 to 4:10 76.84 76.48 74.78 76.21 75.09 74.02
4/17/2015 04:00 to 3:10 75.07 75.57 75.90 75.05 74.72 74.26
4/17/2015 03:00 to 2:10 76.69 77.02 76.36 75.38 77.04 76.86
4/17/2015 02:00 to 1:10 77.02 76.17 76.21 77.08 77.10 77.13
4/17/2015 01:00 to 0:10 75.09 76.67 76.94 75.82 75.26 76.15